Cunnamulla, Australia
Current Conditions -  °F | °C
As of 9:00 AM on Thursday 18 Dec 2014 (Local Time) from YBCV Reporting Station
Clear Clear  
Wind Chill: 88°   Ceiling: Unl
Heat Index: 89°   Visibility: 6mi
Dew Point: 64°   Wind: 16mph
Humidity: 46%   Direction: 330°NNW
Pressure: 29.8"   Gusts: NA
Location:  28.07°S, 145.68°E
Report Text: YBCV 172300Z AUTO 33014KT 9999 // NCD 31/18 Q1009
Loading
Personal Weather Stations






























Interactive Weather Map New forecast layout! Learn more

10-Day Weather Forecast

Advertisements
Track Severe Weather on mobile